Time;durP1;ratioP1;P1;durP2;ratioP2;P2;SDS_P1;SDS_P2;PMS_P1;PMS_P2;Temp;Humidity;BMP_temperature;BMP_pressure;BME280_temperature;BME280_humidity;BME280_pressure;Samples;Min_cycle;Max_cycle;Signal;HPM_P1;HPM_P2
2022/01/10 00:01:46;;;;;;;;;;;;;;;6.71;85.64;93618.13;5116524;27;968;-48
2022/01/10 00:04:12;;;;;;;;;;;;;;;6.67;85.92;93614.97;5116376;28;1032;-48
2022/01/10 00:06:38;;;;;;;;;;;;;;;6.72;85.93;93615.28;5116419;28;1165;-48
2022/01/10 00:09:04;;;;;;;;;;;;;;;6.55;86.50;93614.56;5115898;28;1218;-48
2022/01/10 00:11:30;;;;;;;;;;;;;;;6.53;86.81;93621.88;5116221;28;1914;-48
2022/01/10 00:13:56;;;;;;;;;;;;;;;6.56;86.92;93618.84;5115842;28;1024;-48
2022/01/10 00:16:23;;;;;;;;;;;;;;;6.57;86.59;93619.69;5116378;28;1060;-48
2022/01/10 00:18:49;;;;;;;;;;;;;;;6.54;87.01;93620.03;5115910;28;1862;-48
2022/01/10 00:21:15;;;;;;;;;;;;;;;6.56;87.15;93620.69;5116052;28;1063;-48
2022/01/10 00:23:42;;;;;;;;;;;;;;;6.48;87.13;93613.59;5115940;28;973;-48
2022/01/10 00:26:08;;;;;;;;;;;;;;;6.47;87.66;93619.06;5115795;28;1112;-48
2022/01/10 00:28:34;;;;;;;;;;;;;;;6.52;87.60;93622.84;5115686;28;1021;-48
2022/01/10 00:31:00;;;;;;;;;;;;;;;6.48;87.59;93616.25;5115531;28;1913;-48
2022/01/10 00:33:26;;;;;;;;;;;;;;;6.59;87.23;93610.53;5115590;28;1025;-48
2022/01/10 00:35:52;;;;;;;;;;;;;;;6.56;86.96;93613.53;5115842;28;1047;-48
2022/01/10 00:38:18;;;;;;;;;;;;;;;6.49;86.89;93612.59;5115665;28;1050;-48
2022/01/10 00:40:48;;;;;;;;;;;;;;;6.58;86.35;93605.41;5115630;28;1040;-48
2022/01/10 00:43:18;;;;;;;;;;;;;;;6.62;86.14;93604.03;5115646;27;1052;-48
2022/01/10 00:45:45;;;;;;;;;;;;;;;6.65;86.30;93607.19;5115778;28;1000;-48
2022/01/10 00:48:11;;;;;;;;;;;;;;;6.72;85.90;93609.16;5115576;28;977;-48
2022/01/10 00:50:37;;;;;;;;;;;;;;;6.63;86.23;93605.72;5115533;28;1906;-48
2022/01/10 00:53:03;;;;;;;;;;;;;;;6.59;86.00;93607.06;5115168;28;1076;-48
2022/01/10 00:55:29;;;;;;;;;;;;;;;6.60;86.24;93604.25;5115397;28;956;-48
2022/01/10 00:57:56;;;;;;;;;;;;;;;6.55;86.44;93606.59;5115058;28;1071;-48
2022/01/10 01:00:22;;;;;;;;;;;;;;;6.67;86.15;93607.00;5115088;27;1119;-48
2022/01/10 01:02:49;;;;;;;;;;;;;;;6.73;85.88;93608.13;5114796;28;1043;-48
2022/01/10 01:05:17;;;;;;;;;;;;;;;6.76;84.58;93605.97;5115031;28;1045;-48
2022/01/10 01:07:43;;;;;;;;;;;;;;;6.73;85.16;93603.66;5115035;28;1149;-48
2022/01/10 01:16:11;;;;;;;;;;;;;;;6.71;86.29;93600.34;5115059;28;1057;-48
2022/01/10 01:18:21;;;;;;;;;;;;;;;6.70;86.01;93605.84;5106580;28;1192;-48
2022/01/10 01:26:17;;;;;;;;;;;;;;;6.66;86.80;93592.09;5114978;28;1063;-48
2022/01/10 01:28:43;;;;;;;;;;;;;;;6.63;87.39;93595.09;5113186;28;1024;-49
2022/01/10 01:31:09;;;;;;;;;;;;;;;6.60;87.31;93587.47;5114212;28;1905;-49
2022/01/10 01:33:35;;;;;;;;;;;;;;;6.50;87.98;93592.19;5113501;28;1069;-49
2022/01/10 01:36:01;;;;;;;;;;;;;;;6.47;88.34;93587.19;5114735;28;988;-49
2022/01/10 01:38:27;;;;;;;;;;;;;;;6.37;88.90;93595.38;5114658;28;958;-49
2022/01/10 01:41:11;;;;;;;;;;;;;;;6.35;89.07;93597.38;5114422;28;1052;-49
2022/01/10 01:43:37;;;;;;;;;;;;;;;6.33;89.35;93597.56;5114397;28;1000;-49
2022/01/10 01:46:03;;;;;;;;;;;;;;;6.31;89.60;93594.25;5114622;28;1071;-49
2022/01/10 01:48:29;;;;;;;;;;;;;;;6.28;89.84;93593.75;5114600;28;1035;-49
2022/01/10 01:50:55;;;;;;;;;;;;;;;6.34;89.67;93596.56;5114012;28;1890;-49
2022/01/10 01:53:21;;;;;;;;;;;;;;;6.44;89.07;93588.38;5114380;28;1038;-49
2022/01/10 01:55:47;;;;;;;;;;;;;;;6.45;88.81;93582.09;5114145;28;1000;-49
2022/01/10 01:58:13;;;;;;;;;;;;;;;6.42;88.99;93583.25;5114074;28;1044;-49
2022/01/10 02:00:39;;;;;;;;;;;;;;;6.33;89.35;93588.78;5114028;28;1073;-49
2022/01/10 02:03:05;;;;;;;;;;;;;;;6.35;89.34;93592.91;5114245;28;961;-49
2022/01/10 02:05:31;;;;;;;;;;;;;;;6.33;89.44;93589.59;5113865;28;2037;-49
2022/01/10 02:07:57;;;;;;;;;;;;;;;6.31;89.74;93591.59;5114086;28;1044;-49
2022/01/10 02:10:23;;;;;;;;;;;;;;;6.29;89.66;93585.63;5113632;28;1993;-49
2022/01/10 02:12:49;;;;;;;;;;;;;;;6.34;89.46;93593.09;5113971;28;956;-49
2022/01/10 02:15:25;;;;;;;;;;;;;;;6.39;89.27;93599.53;5112935;28;1093;-49
2022/01/10 02:17:55;;;;;;;;;;;;;;;6.35;89.17;93594.75;5113997;28;1066;-49
2022/01/10 02:20:21;;;;;;;;;;;;;;;6.34;89.24;93591.25;5113675;28;1003;-49
2022/01/10 02:22:47;;;;;;;;;;;;;;;6.34;89.40;93595.75;5113858;28;1033;-49
2022/01/10 02:25:13;;;;;;;;;;;;;;;6.30;89.76;93592.63;5113570;28;1056;-49
2022/01/10 02:27:39;;;;;;;;;;;;;;;6.32;89.61;93590.63;5113698;28;1043;-49
2022/01/10 02:30:05;;;;;;;;;;;;;;;6.32;89.53;93595.91;5111991;28;1992;-49
2022/01/10 02:32:34;;;;;;;;;;;;;;;6.30;89.63;93600.56;5113886;28;1011;-49
2022/01/10 02:35:00;;;;;;;;;;;;;;;6.41;89.07;93597.53;5113598;28;1040;-49
2022/01/10 02:37:30;;;;;;;;;;;;;;;6.33;89.14;93597.56;5113659;28;1021;-49
2022/01/10 02:39:58;;;;;;;;;;;;;;;6.15;89.74;93597.81;5113433;28;980;-49
2022/01/10 02:42:24;;;;;;;;;;;;;;;6.16;88.38;93594.16;5113638;28;1107;-48
2022/01/10 02:44:50;;;;;;;;;;;;;;;6.12;88.53;93597.31;5113430;28;1081;-49
2022/01/10 02:47:16;;;;;;;;;;;;;;;6.15;87.50;93594.34;5113714;28;1067;-49
2022/01/10 02:49:42;;;;;;;;;;;;;;;6.23;87.21;93595.13;5113362;28;1072;-49
2022/01/10 02:52:08;;;;;;;;;;;;;;;6.16;86.34;93594.16;5113451;28;1993;-49
2022/01/10 02:54:34;;;;;;;;;;;;;;;6.14;86.40;93600.63;5113485;28;1029;-49
2022/01/10 02:57:00;;;;;;;;;;;;;;;6.15;86.12;93592.50;5113281;28;1016;-49
2022/01/10 02:59:26;;;;;;;;;;;;;;;6.15;85.89;93597.00;5112050;28;1057;-49
2022/01/10 03:01:53;;;;;;;;;;;;;;;6.06;86.42;93591.69;5113375;28;1069;-49
2022/01/10 03:04:20;;;;;;;;;;;;;;;6.04;86.05;93599.00;5113537;28;1040;-49
2022/01/10 03:06:48;;;;;;;;;;;;;;;6.11;85.70;93593.84;5113157;28;1216;-49
2022/01/10 03:09:15;;;;;;;;;;;;;;;6.17;85.35;93595.00;5113070;28;1119;-49
2022/01/10 03:11:41;;;;;;;;;;;;;;;6.13;85.30;93596.31;5113387;28;1905;-49
2022/01/10 03:14:07;;;;;;;;;;;;;;;6.00;85.81;93600.34;5113512;28;1039;-49
2022/01/10 03:16:34;;;;;;;;;;;;;;;5.94;86.33;93592.22;5113082;28;1108;-49
2022/01/10 03:19:00;;;;;;;;;;;;;;;5.86;87.10;93590.41;5113360;28;1028;-49
2022/01/10 03:21:26;;;;;;;;;;;;;;;5.88;87.83;93588.44;5113161;28;1055;-49
2022/01/10 03:23:52;;;;;;;;;;;;;;;5.95;87.63;93594.72;5113177;28;980;-49
2022/01/10 03:26:19;;;;;;;;;;;;;;;5.95;87.00;93592.06;5114779;28;1043;-49
2022/01/10 03:28:45;;;;;;;;;;;;;;;6.02;86.56;93590.41;5117350;28;1012;-49
2022/01/10 03:31:11;;;;;;;;;;;;;;;6.01;86.41;93593.22;5116454;28;1992;-49
2022/01/10 03:33:37;;;;;;;;;;;;;;;5.93;86.88;93594.03;5117095;28;1036;-49
2022/01/10 03:36:03;;;;;;;;;;;;;;;5.92;88.34;93592.41;5116704;27;1029;-49
2022/01/10 03:38:29;;;;;;;;;;;;;;;5.98;88.82;93594.41;5116890;28;1004;-49
2022/01/10 03:40:55;;;;;;;;;;;;;;;6.05;88.82;93592.72;5116876;28;1035;-49
2022/01/10 03:43:21;;;;;;;;;;;;;;;6.11;88.77;93600.97;5117025;28;1151;-49
2022/01/10 03:45:47;;;;;;;;;;;;;;;6.10;88.67;93602.81;5116518;28;1057;-48
2022/01/10 03:48:13;;;;;;;;;;;;;;;6.04;88.57;93608.81;5116616;28;1032;-49
2022/01/10 03:50:39;;;;;;;;;;;;;;;5.95;88.65;93613.28;5116628;28;1987;-49
2022/01/10 03:53:05;;;;;;;;;;;;;;;5.95;88.42;93607.13;5116447;28;1089;-49
2022/01/10 03:55:31;;;;;;;;;;;;;;;5.94;88.24;93610.78;5116636;28;1983;-49
2022/01/10 03:57:58;;;;;;;;;;;;;;;5.98;88.63;93606.84;5116474;28;1012;-49
2022/01/10 04:00:24;;;;;;;;;;;;;;;5.98;88.63;93602.34;5116242;28;1049;-49
2022/01/10 04:03:01;;;;;;;;;;;;;;;5.97;88.79;93607.81;5116451;28;1051;-49
2022/01/10 04:05:28;;;;;;;;;;;;;;;5.92;89.11;93610.97;5116504;28;992;-49
2022/01/10 04:07:54;;;;;;;;;;;;;;;5.94;89.20;93616.09;5115975;28;1164;-49
2022/01/10 04:10:20;;;;;;;;;;;;;;;5.96;88.93;93614.16;5116059;28;1910;-49
2022/01/10 04:12:46;;;;;;;;;;;;;;;5.86;88.70;93616.94;5116084;28;1140;-49
2022/01/10 04:15:12;;;;;;;;;;;;;;;5.85;88.70;93608.16;5116109;27;1883;-49
2022/01/10 04:17:38;;;;;;;;;;;;;;;5.96;88.36;93609.66;5116064;28;1188;-49
2022/01/10 04:20:04;;;;;;;;;;;;;;;5.95;88.13;93612.44;5115939;28;1120;-49
2022/01/10 04:22:31;;;;;;;;;;;;;;;5.98;88.13;93607.66;5115719;28;1089;-49
2022/01/10 04:24:57;;;;;;;;;;;;;;;5.98;88.44;93612.16;5116187;28;1066;-49
2022/01/10 04:27:23;;;;;;;;;;;;;;;5.93;88.21;93614.44;5115773;27;1108;-49
2022/01/10 04:29:49;;;;;;;;;;;;;;;5.93;88.04;93619.75;5115618;28;979;-49
2022/01/10 04:32:15;;;;;;;;;;;;;;;5.82;87.97;93616.47;5115736;28;1988;-49
2022/01/10 04:34:43;;;;;;;;;;;;;;;5.79;88.12;93629.25;5115819;28;981;-49
2022/01/10 04:37:09;;;;;;;;;;;;;;;5.83;87.41;93626.06;5114842;28;1073;-48
2022/01/10 04:39:35;;;;;;;;;;;;;;;5.85;87.07;93626.72;5115670;28;985;-49
2022/01/10 04:42:01;;;;;;;;;;;;;;;5.82;86.60;93623.59;5115428;28;1057;-49
2022/01/10 04:44:27;;;;;;;;;;;;;;;5.85;85.62;93624.06;5115760;28;1051;-49
2022/01/10 04:46:53;;;;;;;;;;;;;;;5.84;85.28;93625.09;5115427;28;1050;-49
2022/01/10 04:49:24;;;;;;;;;;;;;;;5.81;85.40;93628.06;5115586;28;1016;-49
2022/01/10 04:51:51;;;;;;;;;;;;;;;5.85;85.18;93631.22;5115238;28;1982;-49
2022/01/10 04:54:17;;;;;;;;;;;;;;;5.89;84.93;93626.41;5115371;28;1109;-49
2022/01/10 04:56:44;;;;;;;;;;;;;;;5.85;85.31;93628.56;5115387;28;1053;-49
2022/01/10 04:59:10;;;;;;;;;;;;;;;5.75;85.49;93627.91;5114872;28;1120;-49
2022/01/10 05:01:36;;;;;;;;;;;;;;;5.81;85.23;93625.41;5115469;28;980;-49
2022/01/10 05:04:02;;;;;;;;;;;;;;;5.78;85.28;93624.91;5115024;28;992;-49
2022/01/10 05:06:28;;;;;;;;;;;;;;;5.85;85.28;93624.06;5115062;28;1220;-49
2022/01/10 05:08:54;;;;;;;;;;;;;;;5.75;85.75;93628.75;5114924;28;1215;-49
2022/01/10 05:11:21;;;;;;;;;;;;;;;5.58;86.29;93627.94;5114982;28;1906;-49
2022/01/10 05:13:47;;;;;;;;;;;;;;;5.61;86.97;93630.25;5114865;28;929;-49
2022/01/10 05:16:14;;;;;;;;;;;;;;;5.78;86.20;93631.03;5115013;28;1012;-49
2022/01/10 05:18:40;;;;;;;;;;;;;;;5.88;85.60;93633.53;5114851;28;1047;-49
2022/01/10 05:21:06;;;;;;;;;;;;;;;5.85;86.06;93639.16;5114789;28;1036;-49
2022/01/10 05:23:32;;;;;;;;;;;;;;;5.82;86.91;93644.78;5114882;28;969;-49
2022/01/10 05:25:58;;;;;;;;;;;;;;;5.87;86.48;93639.81;5114934;28;1078;-49
2022/01/10 05:28:24;;;;;;;;;;;;;;;5.91;86.19;93643.78;5114733;28;1052;-49
2022/01/10 05:30:52;;;;;;;;;;;;;;;5.94;85.80;93645.25;5114898;28;1987;-49
2022/01/10 05:33:18;;;;;;;;;;;;;;;5.86;85.75;93649.63;5114530;28;961;-49
2022/01/10 05:35:44;;;;;;;;;;;;;;;5.62;87.23;93650.47;5114551;28;1043;-49
2022/01/10 05:38:11;;;;;;;;;;;;;;;5.55;87.50;93646.81;5114306;28;1049;-49
2022/01/10 05:40:38;;;;;;;;;;;;;;;5.55;87.17;93649.47;5114730;28;1017;-49
2022/01/10 05:43:04;;;;;;;;;;;;;;;5.63;87.73;93652.13;5114398;28;1040;-49
2022/01/10 05:45:30;;;;;;;;;;;;;;;5.78;86.94;93657.56;5114542;28;980;-49
2022/01/10 05:47:56;;;;;;;;;;;;;;;5.86;86.66;93657.56;5114161;28;1049;-49
2022/01/10 05:50:31;;;;;;;;;;;;;;;5.81;86.73;93659.06;5114060;28;1941;-49
2022/01/10 05:52:58;;;;;;;;;;;;;;;5.90;86.33;93657.22;5114108;28;1045;-49
2022/01/10 05:55:24;;;;;;;;;;;;;;;5.89;86.68;93664.34;5114244;28;969;-49
2022/01/10 05:57:50;;;;;;;;;;;;;;;5.80;86.57;93662.69;5114151;28;1064;-49
2022/01/10 06:00:16;;;;;;;;;;;;;;;5.73;86.86;93667.03;5114085;28;969;-49
2022/01/10 06:02:43;;;;;;;;;;;;;;;5.57;87.76;93668.69;5114167;28;1040;-49
2022/01/10 06:05:09;;;;;;;;;;;;;;;5.55;88.43;93672.50;5113815;28;1063;-49
2022/01/10 06:07:36;;;;;;;;;;;;;;;5.57;88.04;93681.94;5114204;28;1157;-49
2022/01/10 06:10:03;;;;;;;;;;;;;;;5.61;87.54;93675.31;5113542;28;1918;-49
2022/01/10 06:12:30;;;;;;;;;;;;;;;5.65;87.05;93671.34;5113963;28;1116;-49
2022/01/10 06:14:56;;;;;;;;;;;;;;;5.79;87.51;93676.97;5113641;28;1022;-49
2022/01/10 06:17:22;;;;;;;;;;;;;;;5.84;87.49;93671.97;5113956;28;1036;-49
2022/01/10 06:19:48;;;;;;;;;;;;;;;5.85;87.60;93671.81;5113594;28;1062;-49
2022/01/10 06:22:14;;;;;;;;;;;;;;;5.85;87.88;93674.47;5113692;28;1108;-49
2022/01/10 06:24:40;;;;;;;;;;;;;;;5.96;87.30;93675.16;5113793;28;1063;-49
2022/01/10 06:27:06;;;;;;;;;;;;;;;5.97;86.89;93677.63;5112586;28;980;-49
2022/01/10 06:29:32;;;;;;;;;;;;;;;6.01;87.04;93678.09;5113493;28;1039;-49
2022/01/10 06:31:58;;;;;;;;;;;;;;;6.00;86.88;93674.63;5113625;28;1992;-49
2022/01/10 06:34:24;;;;;;;;;;;;;;;6.03;86.96;93684.06;5113428;28;981;-49
2022/01/10 06:36:51;;;;;;;;;;;;;;;6.01;86.94;93686.91;5113814;28;984;-49
2022/01/10 06:39:17;;;;;;;;;;;;;;;6.01;87.00;93686.06;5113448;28;1155;-49
2022/01/10 06:41:43;;;;;;;;;;;;;;;5.98;87.10;93689.06;5113750;28;1040;-49
2022/01/10 06:44:09;;;;;;;;;;;;;;;6.04;87.41;93694.53;5113448;28;1039;-49
2022/01/10 06:46:35;;;;;;;;;;;;;;;6.01;87.55;93691.38;5113574;28;1051;-49
2022/01/10 06:49:01;;;;;;;;;;;;;;;5.84;88.03;93691.41;5113312;28;1286;-49
2022/01/10 06:51:27;;;;;;;;;;;;;;;5.97;87.60;93704.16;5113666;28;1925;-49
2022/01/10 06:53:53;;;;;;;;;;;;;;;5.99;87.13;93693.38;5113336;28;1071;-49
2022/01/10 06:56:19;;;;;;;;;;;;;;;5.96;87.79;93694.56;5113658;28;1001;-49
2022/01/10 06:58:45;;;;;;;;;;;;;;;5.95;87.96;93694.69;5113444;28;1047;-49
2022/01/10 07:01:11;;;;;;;;;;;;;;;6.02;87.52;93695.69;5114514;28;1062;-49
2022/01/10 07:03:37;;;;;;;;;;;;;;;6.03;87.34;93697.34;5117529;28;1055;-49
2022/01/10 07:06:03;;;;;;;;;;;;;;;5.97;87.28;93698.84;5117462;28;1385;-49
2022/01/10 07:08:30;;;;;;;;;;;;;;;6.02;87.84;93703.66;5117478;28;1219;-50
2022/01/10 07:10:56;;;;;;;;;;;;;;;6.02;87.43;93703.66;5117268;28;1905;-48
2022/01/10 07:13:24;;;;;;;;;;;;;;;6.03;87.12;93714.09;5117437;27;1095;-49
2022/01/10 07:15:50;;;;;;;;;;;;;;;6.09;87.32;93711.75;5117114;28;1127;-48
2022/01/10 07:18:16;;;;;;;;;;;;;;;6.05;87.31;93711.25;5117248;28;1963;-49
2022/01/10 07:20:42;;;;;;;;;;;;;;;6.03;87.37;93706.16;5117097;28;1128;-49
2022/01/10 07:23:08;;;;;;;;;;;;;;;5.93;87.54;93708.09;5117273;28;1027;-49
2022/01/10 07:25:35;;;;;;;;;;;;;;;6.02;87.58;93711.63;5117125;28;972;-49
2022/01/10 07:28:01;;;;;;;;;;;;;;;6.12;86.78;93714.09;5117189;28;988;-49
2022/01/10 07:30:27;;;;;;;;;;;;;;;6.23;86.72;93713.72;5116774;28;1988;-49
2022/01/10 07:32:53;;;;;;;;;;;;;;;6.24;86.73;93713.56;5116956;27;988;-49
2022/01/10 07:35:19;;;;;;;;;;;;;;;6.26;86.83;93716.06;5117011;28;958;-49
2022/01/10 07:37:45;;;;;;;;;;;;;;;6.18;87.71;93724.84;5117137;28;1032;-49
2022/01/10 07:40:31;;;;;;;;;;;;;;;6.15;87.39;93722.53;5116966;28;2113;-49
2022/01/10 07:42:57;;;;;;;;;;;;;;;6.21;87.34;93723.69;5116833;28;984;-49
2022/01/10 07:45:23;;;;;;;;;;;;;;;6.19;88.11;93733.66;5116543;28;1064;-49
2022/01/10 07:47:50;;;;;;;;;;;;;;;6.11;88.52;93736.28;5116944;28;984;-49
2022/01/10 07:50:16;;;;;;;;;;;;;;;6.15;88.17;93732.34;5116726;28;1891;-49
2022/01/10 07:52:42;;;;;;;;;;;;;;;6.19;88.25;93738.94;5115555;28;964;-49
2022/01/10 07:55:08;;;;;;;;;;;;;;;6.31;87.11;93734.09;5116503;28;1002;-49
2022/01/10 07:57:34;;;;;;;;;;;;;;;6.41;87.38;93730.28;5116514;27;1088;-49
2022/01/10 08:00:01;;;;;;;;;;;;;;;6.39;87.75;93734.94;5115972;28;1096;-49
2022/01/10 08:02:27;;;;;;;;;;;;;;;6.45;87.08;93734.25;5115251;28;1057;-49
2022/01/10 08:04:53;;;;;;;;;;;;;;;6.51;86.73;93740.69;5116487;28;1032;-49
2022/01/10 08:07:20;;;;;;;;;;;;;;;6.63;86.33;93738.50;5116392;28;1216;-49
2022/01/10 08:09:45;;;;;;;;;;;;;;;6.66;85.20;93746.13;5114875;28;1092;-49
2022/01/10 08:12:12;;;;;;;;;;;;;;;6.70;85.50;93750.09;5114936;28;1909;-49
2022/01/10 08:14:38;;;;;;;;;;;;;;;6.78;85.01;93741.25;5115789;28;957;-49
2022/01/10 08:17:04;;;;;;;;;;;;;;;6.80;84.34;93737.41;5116174;28;1059;-49
2022/01/10 08:19:33;;;;;;;;;;;;;;;6.90;84.12;93744.34;5116326;28;968;-49
2022/01/10 08:22:00;;;;;;;;;;;;;;;6.99;83.15;93745.97;5115847;28;1107;-49
2022/01/10 08:24:26;;;;;;;;;;;;;;;6.98;83.32;93742.50;5116121;28;1020;-48
2022/01/10 08:26:53;;;;;;;;;;;;;;;7.08;82.84;93752.09;5115816;28;968;-49
2022/01/10 08:29:19;;;;;;;;;;;;;;;7.13;81.79;93747.06;5115694;28;1144;-49
2022/01/10 08:31:45;;;;;;;;;;;;;;;7.12;82.42;93740.94;5115838;28;1988;-48
2022/01/10 08:34:11;;;;;;;;;;;;;;;7.19;82.59;93744.56;5115754;28;1040;-49
2022/01/10 08:36:38;;;;;;;;;;;;;;;7.33;81.82;93742.16;5115725;28;983;-49
2022/01/10 08:39:05;;;;;;;;;;;;;;;7.29;81.02;93743.50;5115814;28;957;-49
2022/01/10 08:41:31;;;;;;;;;;;;;;;7.22;81.85;93746.84;5115589;28;1068;-49
2022/01/10 08:43:57;;;;;;;;;;;;;;;7.17;82.03;93743.06;5115475;28;1104;-49
2022/01/10 08:46:23;;;;;;;;;;;;;;;7.15;82.92;93742.41;5115703;28;992;-49
2022/01/10 08:48:50;;;;;;;;;;;;;;;7.22;82.31;93743.38;5115693;28;983;-49
2022/01/10 08:51:17;;;;;;;;;;;;;;;7.10;82.78;93744.78;5115439;28;1906;-49
2022/01/10 08:53:43;;;;;;;;;;;;;;;7.22;82.51;93746.84;5115604;28;1001;-49
2022/01/10 08:56:09;;;;;;;;;;;;;;;7.30;82.36;93743.31;5115225;28;1108;-49
2022/01/10 08:58:35;;;;;;;;;;;;;;;7.35;82.98;93740.94;5115310;28;1207;-49
2022/01/10 09:01:05;;;;;;;;;;;;;;;7.43;83.13;93740.06;5115094;28;980;-49
2022/01/10 09:03:32;;;;;;;;;;;;;;;7.45;81.54;93734.59;5115553;28;1087;-49
2022/01/10 09:05:58;;;;;;;;;;;;;;;7.47;81.91;93732.56;5114939;28;2007;-49
2022/01/10 09:08:31;;;;;;;;;;;;;;;7.47;81.77;93730.72;5115068;28;1241;-49
2022/01/10 09:10:57;;;;;;;;;;;;;;;7.50;81.29;93732.22;5114912;28;1914;-49
2022/01/10 09:13:23;;;;;;;;;;;;;;;7.46;82.19;93731.75;5115365;28;981;-49
2022/01/10 09:15:49;;;;;;;;;;;;;;;7.37;81.92;93730.16;5115092;28;1131;-49
2022/01/10 09:18:16;;;;;;;;;;;;;;;7.41;81.56;93732.25;5115008;28;1044;-48
2022/01/10 09:20:43;;;;;;;;;;;;;;;7.41;81.43;93734.94;5114966;28;1882;-48
2022/01/10 09:23:09;;;;;;;;;;;;;;;7.45;81.44;93734.59;5114617;28;1027;-49
2022/01/10 09:25:36;;;;;;;;;;;;;;;7.48;82.10;93731.59;5114652;28;1052;-49
2022/01/10 09:28:02;;;;;;;;;;;;;;;7.45;82.09;93727.44;5114520;28;976;-49
2022/01/10 09:30:28;;;;;;;;;;;;;;;7.52;81.51;93733.69;5114529;28;1906;-49
2022/01/10 09:32:54;;;;;;;;;;;;;;;7.55;81.48;93728.03;5114477;28;1028;-49
2022/01/10 09:35:21;;;;;;;;;;;;;;;7.50;81.83;93729.56;5114834;28;1025;-49
2022/01/10 09:37:47;;;;;;;;;;;;;;;7.51;82.67;93731.22;5114496;28;1008;-49
2022/01/10 09:40:13;;;;;;;;;;;;;;;7.58;81.29;93725.00;5114432;28;975;-49
2022/01/10 09:42:40;;;;;;;;;;;;;;;7.55;80.95;93732.50;5114299;28;1128;-49
2022/01/10 09:45:07;;;;;;;;;;;;;;;7.55;81.80;93737.81;5114620;28;1052;-49
2022/01/10 09:47:34;;;;;;;;;;;;;;;7.62;81.82;93738.78;5114436;28;1048;-49
2022/01/10 09:49:59;;;;;;;;;;;;;;;7.62;81.07;93731.63;5114402;28;1067;-49
2022/01/10 09:52:26;;;;;;;;;;;;;;;7.62;80.84;93730.81;5114098;28;1975;-49
2022/01/10 09:54:53;;;;;;;;;;;;;;;7.58;81.06;93730.31;5114171;28;1039;-49
2022/01/10 09:57:20;;;;;;;;;;;;;;;7.62;80.91;93725.47;5114095;28;1057;-49
2022/01/10 09:59:47;;;;;;;;;;;;;;;7.60;80.77;93725.66;5114046;28;1036;-49
2022/01/10 10:02:14;;;;;;;;;;;;;;;7.67;80.39;93719.66;5114091;28;1145;-49
2022/01/10 10:04:41;;;;;;;;;;;;;;;7.71;81.05;93720.94;5114275;28;1063;-49
2022/01/10 10:07:07;;;;;;;;;;;;;;;7.65;81.29;93726.97;5113957;28;1216;-49
2022/01/10 10:12:55;;;;;;;;;;;;;;;7.63;79.74;93732.47;4738653;28;2041;-47
2022/01/10 10:15:27;;;;;;;;;;;;;;;7.53;80.88;93730.06;5114120;28;1080;-49
2022/01/10 10:17:54;;;;;;;;;;;;;;;7.53;80.37;93732.72;5113710;28;981;-49
2022/01/10 10:20:22;;;;;;;;;;;;;;;7.41;80.97;93731.44;5114137;28;984;-49
2022/01/10 10:22:50;;;;;;;;;;;;;;;7.37;80.70;93730.97;5113634;28;925;-49
2022/01/10 10:25:17;;;;;;;;;;;;;;;7.39;80.95;93731.63;5114012;28;1012;-49
2022/01/10 10:27:45;;;;;;;;;;;;;;;7.45;80.47;93730.09;5113583;28;1149;-49
2022/01/10 10:30:13;;;;;;;;;;;;;;;7.48;80.74;93732.41;5113354;28;1177;-49
2022/01/10 10:32:39;;;;;;;;;;;;;;;7.45;80.53;93727.44;5113528;28;956;-49
2022/01/10 10:35:06;;;;;;;;;;;;;;;7.30;80.95;93723.88;5113419;28;1032;-49
2022/01/10 10:37:40;;;;;;;;;;;;;;;7.33;81.30;93718.22;5113440;28;1015;-49
2022/01/10 10:40:09;;;;;;;;;;;;;;;7.33;81.47;93723.53;5113553;28;1025;-49
2022/01/10 10:42:41;;;;;;;;;;;;;;;7.34;81.60;93722.50;5112300;28;1021;-49
2022/01/10 10:45:08;;;;;;;;;;;;;;;7.33;81.38;93718.22;5113524;28;1051;-49
2022/01/10 10:47:35;;;;;;;;;;;;;;;7.40;81.16;93711.19;5112124;28;1271;-49
2022/01/10 10:50:02;;;;;;;;;;;;;;;7.36;81.24;93718.69;5113727;28;1047;-49
2022/01/10 10:52:32;;;;;;;;;;;;;;;7.32;82.23;93716.53;5113451;28;1980;-49
2022/01/10 10:55:06;;;;;;;;;;;;;;;7.25;81.49;93724.41;5113476;28;1016;-49
2022/01/10 10:57:32;;;;;;;;;;;;;;;7.14;81.58;93725.63;5113818;28;1068;-49
2022/01/10 11:00:00;;;;;;;;;;;;;;;7.20;82.09;93729.41;5112589;28;1121;-49
2022/01/10 11:02:26;;;;;;;;;;;;;;;7.16;82.49;93730.78;5113714;28;948;-49
2022/01/10 11:04:52;;;;;;;;;;;;;;;7.24;81.83;93738.69;5113439;28;952;-49
2022/01/10 11:07:23;;;;;;;;;;;;;;;7.27;81.37;93737.53;5113343;28;1181;-48
2022/01/10 11:09:49;;;;;;;;;;;;;;;7.24;81.55;93739.50;5113353;28;1016;-49
2022/01/10 11:12:20;;;;;;;;;;;;;;;7.20;81.45;93734.75;5113040;28;1909;-49
2022/01/10 11:14:46;;;;;;;;;;;;;;;7.07;82.24;93732.63;5113446;28;985;-49
2022/01/10 11:17:19;;;;;;;;;;;;;;;7.09;83.15;93735.94;5113466;28;961;-49
2022/01/10 11:20:05;;;;;;;;;;;;;;;7.31;81.71;93729.03;5111841;28;1528;-49
2022/01/10 11:22:31;;;;;;;;;;;;;;;7.30;81.95;93739.81;5113189;28;2188;-49
2022/01/10 11:24:57;;;;;;;;;;;;;;;7.20;82.11;93740.88;5112939;28;1031;-49
2022/01/10 11:27:28;;;;;;;;;;;;;;;7.09;83.02;93735.94;5113482;28;973;-49
2022/01/10 11:29:56;;;;;;;;;;;;;;;7.07;83.16;93742.44;5112936;28;1108;-49
2022/01/10 11:32:42;;;;;;;;;;;;;;;7.13;82.92;93739.94;5113312;28;1985;-49
2022/01/10 11:35:08;;;;;;;;;;;;;;;7.16;82.95;93742.22;5112897;28;1283;-48
2022/01/10 11:37:35;;;;;;;;;;;;;;;7.14;82.40;93746.91;5111938;28;975;-48
2022/01/10 11:40:00;;;;;;;;;;;;;;;7.10;82.72;93750.09;5113068;28;1004;-48
2022/01/10 11:42:26;;;;;;;;;;;;;;;7.08;82.89;93750.25;5113279;28;968;-48
2022/01/10 11:45:07;;;;;;;;;;;;;;;7.11;82.64;93739.25;5112808;28;994;-48
2022/01/10 11:47:53;;;;;;;;;;;;;;;7.14;83.04;93741.56;5114883;28;1206;-48
2022/01/10 11:50:23;;;;;;;;;;;;;;;7.17;83.03;93743.06;5116464;28;1914;-48
2022/01/10 11:53:16;;;;;;;;;;;;;;;7.16;83.37;93755.53;5116886;28;1151;-49
2022/01/10 11:55:44;;;;;;;;;;;;;;;7.06;83.33;93744.28;5113912;28;1258;-49
2022/01/10 11:58:20;;;;;;;;;;;;;;;7.06;82.89;93754.06;5116458;28;984;-49
2022/01/10 12:00:46;;;;;;;;;;;;;;;7.02;83.83;93749.13;5116414;28;1028;-49
2022/01/10 12:03:12;;;;;;;;;;;;;;;7.06;83.16;93754.06;5116420;28;1167;-49
2022/01/10 12:05:39;;;;;;;;;;;;;;;6.97;83.13;93746.16;5116267;28;1204;-49
2022/01/10 12:08:05;;;;;;;;;;;;;;;6.96;83.37;93746.31;5116446;28;984;-49
2022/01/10 12:10:32;;;;;;;;;;;;;;;6.91;83.27;93749.50;5116088;28;2017;-49
2022/01/10 12:12:59;;;;;;;;;;;;;;;6.95;82.68;93748.16;5114785;28;1266;-49
2022/01/10 12:15:29;;;;;;;;;;;;;;;6.91;83.01;93754.00;5116055;28;1111;-49
2022/01/10 12:17:56;;;;;;;;;;;;;;;6.84;82.89;93757.31;5116282;28;972;-49
2022/01/10 12:20:23;;;;;;;;;;;;;;;6.84;83.83;93753.84;5116096;28;1066;-49
2022/01/10 12:22:52;;;;;;;;;;;;;;;6.89;83.31;93754.16;5116242;28;1020;-49
2022/01/10 12:25:18;;;;;;;;;;;;;;;6.80;83.54;93750.69;5115816;28;1033;-49
2022/01/10 12:27:44;;;;;;;;;;;;;;;6.73;83.15;93755.03;5116004;28;981;-49
2022/01/10 12:30:10;;;;;;;;;;;;;;;6.66;82.77;93756.75;5115463;28;1890;-49
2022/01/10 12:32:38;;;;;;;;;;;;;;;6.64;83.91;93762.22;5116002;28;1910;-49
2022/01/10 12:35:04;;;;;;;;;;;;;;;6.71;83.39;93765.00;5115915;28;1013;-49
2022/01/10 12:37:30;;;;;;;;;;;;;;;6.75;82.96;93766.31;5115967;28;1051;-49
2022/01/10 12:39:57;;;;;;;;;;;;;;;6.76;83.41;93764.50;5115582;28;1024;-49
2022/01/10 12:42:26;;;;;;;;;;;;;;;6.70;82.29;93766.03;5115684;28;1044;-49
2022/01/10 12:44:52;;;;;;;;;;;;;;;6.83;82.53;93757.53;5115625;28;1217;-49
2022/01/10 12:47:18;;;;;;;;;;;;;;;6.74;83.21;93759.38;5115647;28;1039;-49
2022/01/10 12:49:47;;;;;;;;;;;;;;;6.76;82.14;93761.84;5115524;28;1020;-49
2022/01/10 12:52:13;;;;;;;;;;;;;;;6.77;82.26;93768.81;5115388;28;1906;-49
2022/01/10 12:54:40;;;;;;;;;;;;;;;6.81;83.05;93772.78;5115326;28;976;-49
2022/01/10 12:57:07;;;;;;;;;;;;;;;6.84;81.46;93770.59;5115355;28;1028;-49
2022/01/10 12:59:35;;;;;;;;;;;;;;;6.84;82.08;93780.41;5114377;28;1056;-49
2022/01/10 13:02:02;;;;;;;;;;;;;;;6.81;81.59;93775.44;5115260;28;1119;-49
2022/01/10 13:04:30;;;;;;;;;;;;;;;6.79;81.69;93785.41;5115331;28;1229;-49
2022/01/10 13:06:57;;;;;;;;;;;;;;;6.83;81.54;93789.41;5114965;28;1145;-49
2022/01/10 13:09:24;;;;;;;;;;;;;;;6.83;82.00;93786.75;5114991;28;1264;-49
2022/01/10 13:12:01;;;;;;;;;;;;;;;6.95;81.92;93789.84;5114940;28;1983;-49
2022/01/10 13:14:34;;;;;;;;;;;;;;;6.91;82.42;93797.31;5115323;28;1031;-49
2022/01/10 13:17:07;;;;;;;;;;;;;;;7.00;81.84;93801.63;5114904;28;1108;-49
2022/01/10 13:19:34;;;;;;;;;;;;;;;7.03;81.52;93809.22;5115039;28;1104;-49
2022/01/10 13:22:03;;;;;;;;;;;;;;;7.02;81.34;93810.25;5114647;28;969;-49
2022/01/10 13:24:31;;;;;;;;;;;;;;;7.05;81.16;93819.69;5114859;28;964;-49